createdAt,value
2023-01-13T00:01:23.206Z,26.73
2023-01-13T00:03:52.774Z,21.90
2023-01-13T00:06:22.611Z,22.63
2023-01-13T00:08:52.379Z,23.57
2023-01-13T00:11:21.478Z,20.73
2023-01-13T00:13:49.543Z,26.33
2023-01-13T00:16:19.508Z,22.77
2023-01-13T00:18:48.867Z,19.30
2023-01-13T00:21:20.015Z,28.17
2023-01-13T00:23:48.794Z,33.20
2023-01-13T00:26:19.206Z,20.10
2023-01-13T00:28:47.654Z,20.17
2023-01-13T00:31:17.668Z,31.93
2023-01-13T00:33:45.952Z,20.37
2023-01-13T00:36:15.407Z,18.67
2023-01-13T00:38:45.175Z,21.07
2023-01-13T00:41:15.387Z,29.87
2023-01-13T00:43:43.119Z,14.97
2023-01-13T00:46:13.263Z,19.93
2023-01-13T00:48:41.491Z,24.23
2023-01-13T00:51:11.997Z,24.63
2023-01-13T00:53:43.584Z,28.13
2023-01-13T00:56:16.625Z,23.40
2023-01-13T00:58:45.694Z,20.10
2023-01-13T01:01:16.333Z,21.63
2023-01-13T01:03:44.403Z,27.37
2023-01-13T01:06:16.209Z,18.60
2023-01-13T01:08:44.913Z,25.83
2023-01-13T01:11:15.936Z,25.43
2023-01-13T01:13:44.444Z,24.10
2023-01-13T01:16:14.131Z,24.63
2023-01-13T01:18:44.586Z,22.33
2023-01-13T01:21:13.691Z,22.73
2023-01-13T01:23:42.224Z,21.73
2023-01-13T01:26:13.141Z,23.23
2023-01-13T01:28:42.961Z,20.30
2023-01-13T01:31:14.408Z,17.93
2023-01-13T01:33:42.372Z,23.27
2023-01-13T01:36:12.175Z,27.40
2023-01-13T01:38:40.212Z,19.67
2023-01-13T01:41:08.528Z,19.33
2023-01-13T01:43:59.487Z,20.10
2023-01-13T01:46:28.650Z,26.17
2023-01-13T01:49:01.607Z,19.47
2023-01-13T01:51:33.564Z,22.03
2023-01-13T01:54:03.696Z,32.87
2023-01-13T01:56:33.480Z,25.90
2023-01-13T01:59:02.857Z,21.20
2023-01-13T02:01:30.912Z,25.03
2023-01-13T02:04:04.727Z,28.83
2023-01-13T02:06:32.885Z,23.30
2023-01-13T02:09:02.265Z,27.27
2023-01-13T02:11:52.922Z,27.97
2023-01-13T02:14:24.063Z,26.47
2023-01-13T02:17:11.924Z,23.23
2023-01-13T02:20:22.732Z,24.47
2023-01-13T02:23:44.807Z,21.87
2023-01-13T02:26:46.263Z,27.57
2023-01-13T02:29:45.206Z,19.90
2023-01-13T02:32:21.512Z,27.13
2023-01-13T02:34:56.780Z,19.27
2023-01-13T02:37:29.741Z,25.80
2023-01-13T02:40:01.460Z,29.13
2023-01-13T02:42:51.012Z,22.63
2023-01-13T02:45:25.318Z,24.47
2023-01-13T02:47:55.766Z,23.77
2023-01-13T02:50:28.968Z,18.00
2023-01-13T02:53:01.609Z,24.33
2023-01-13T02:55:34.107Z,20.03
2023-01-13T02:58:04.629Z,20.97
2023-01-13T03:00:34.527Z,25.03
2023-01-13T03:03:03.161Z,15.97
2023-01-13T03:05:32.817Z,23.17
2023-01-13T03:08:23.946Z,27.43
2023-01-13T03:11:02.918Z,24.20
2023-01-13T03:13:44.905Z,23.90
2023-01-13T03:16:21.890Z,29.00
2023-01-13T03:18:56.822Z,23.13
2023-01-13T03:21:29.613Z,23.70
2023-01-13T03:24:01.569Z,27.87
2023-01-13T03:26:34.093Z,22.07
2023-01-13T03:29:09.855Z,24.40
2023-01-13T03:31:47.788Z,24.43
2023-01-13T03:34:18.905Z,23.57
2023-01-13T03:36:52.649Z,25.13
2023-01-13T03:39:26.420Z,28.30
2023-01-13T03:41:59.988Z,28.37
2023-01-13T03:44:32.888Z,18.57
2023-01-13T03:47:10.722Z,19.00
2023-01-13T03:49:42.566Z,21.10
2023-01-13T03:52:15.672Z,19.77
2023-01-13T03:54:49.613Z,16.33
2023-01-13T03:57:20.696Z,18.97
2023-01-13T03:59:55.211Z,15.20
2023-01-13T04:02:37.257Z,21.13
2023-01-13T04:05:09.382Z,19.47
2023-01-13T04:07:47.838Z,17.37
2023-01-13T04:10:20.654Z,16.57
2023-01-13T04:13:02.970Z,16.40
2023-01-13T04:15:34.598Z,12.13
2023-01-13T04:18:16.273Z,12.77
2023-01-13T04:20:45.074Z,15.53
2023-01-13T04:23:13.705Z,18.93
2023-01-13T04:25:42.105Z,16.17
2023-01-13T04:28:10.506Z,9.87
2023-01-13T04:30:39.098Z,12.13
2023-01-13T04:33:07.288Z,14.93
2023-01-13T04:35:37.168Z,13.87
2023-01-13T04:38:06.569Z,10.50
2023-01-13T04:40:34.662Z,10.33
2023-01-13T04:43:02.515Z,9.70
2023-01-13T04:45:30.378Z,10.47
2023-01-13T04:47:58.264Z,12.43
2023-01-13T04:50:26.490Z,9.77
2023-01-13T04:52:56.261Z,8.80
2023-01-13T04:55:25.525Z,5.43
2023-01-13T04:57:53.557Z,10.53
2023-01-13T05:00:25.317Z,10.20
2023-01-13T05:02:53.356Z,9.93
2023-01-13T05:05:21.690Z,10.73
2023-01-13T05:07:52.439Z,8.23
2023-01-13T05:10:23.895Z,7.27
2023-01-13T05:13:10.086Z,6.93
2023-01-13T05:15:57.607Z,8.23
2023-01-13T05:18:25.795Z,10.07
2023-01-13T05:20:53.581Z,8.17
2023-01-13T05:23:39.116Z,9.87
2023-01-13T05:26:08.554Z,7.30
2023-01-13T05:28:36.434Z,12.53
2023-01-13T05:31:04.347Z,11.77
2023-01-13T05:33:33.673Z,12.43
2023-01-13T05:36:04.233Z,8.60
2023-01-13T05:38:32.009Z,14.00
2023-01-13T05:41:18.176Z,14.03
2023-01-13T05:43:47.809Z,11.90
2023-01-13T05:46:17.631Z,13.00
2023-01-13T05:48:45.680Z,8.37
2023-01-13T05:51:14.365Z,13.23
2023-01-13T05:53:42.393Z,12.43
2023-01-13T05:56:10.743Z,19.37
2023-01-13T05:58:38.710Z,13.77
2023-01-13T06:01:10.093Z,11.13
2023-01-13T06:03:38.748Z,10.53
2023-01-13T06:06:08.791Z,13.33
2023-01-13T06:08:39.448Z,12.80
2023-01-13T06:11:07.847Z,12.73
2023-01-13T06:13:35.790Z,13.57
2023-01-13T06:16:03.794Z,11.83
2023-01-13T06:18:33.231Z,15.30
2023-01-13T06:21:01.082Z,17.20
2023-01-13T06:23:29.450Z,14.50
2023-01-13T06:26:05.092Z,16.67
2023-01-13T06:28:33.277Z,14.27
2023-01-13T06:31:04.621Z,14.50
2023-01-13T06:33:37.917Z,13.07
2023-01-13T06:36:09.330Z,14.00
2023-01-13T06:38:41.786Z,16.63
2023-01-13T06:41:09.942Z,19.63
2023-01-13T06:43:37.994Z,17.53
2023-01-13T06:46:06.110Z,19.20
2023-01-13T06:48:36.151Z,14.63
2023-01-13T06:51:04.756Z,12.17
2023-01-13T06:53:32.976Z,8.63
2023-01-13T06:56:00.923Z,14.80
2023-01-13T06:58:28.754Z,14.90
2023-01-13T07:01:01.274Z,13.53
2023-01-13T07:03:29.235Z,15.27
2023-01-13T07:05:58.719Z,18.70
2023-01-13T07:08:26.585Z,15.30
2023-01-13T07:10:54.544Z,12.30
2023-01-13T07:13:37.399Z,18.70
2023-01-13T07:16:07.952Z,13.47
2023-01-13T07:18:36.355Z,14.37
2023-01-13T07:21:07.928Z,23.90
2023-01-13T07:23:37.573Z,16.67
2023-01-13T07:26:06.043Z,17.43
2023-01-13T07:28:34.613Z,20.50
2023-01-13T07:31:02.747Z,24.27
2023-01-13T07:33:32.937Z,16.43
2023-01-13T07:36:02.715Z,22.77
2023-01-13T07:38:33.108Z,14.63
2023-01-13T07:41:22.336Z,15.67
2023-01-13T07:43:49.550Z,14.93
2023-01-13T07:46:18.352Z,15.70
2023-01-13T07:48:49.886Z,22.73
2023-01-13T07:51:17.714Z,16.50
2023-01-13T07:53:46.935Z,17.20
2023-01-13T07:56:14.889Z,17.30
2023-01-13T07:58:42.713Z,20.77
2023-01-13T08:01:12.211Z,17.73
2023-01-13T08:03:40.387Z,16.93
2023-01-13T08:06:08.911Z,18.13
2023-01-13T08:08:37.044Z,13.23
2023-01-13T08:11:08.248Z,14.80
2023-01-13T08:13:36.326Z,27.50
2023-01-13T08:16:07.090Z,19.43
2023-01-13T08:18:36.362Z,12.80
2023-01-13T08:21:07.727Z,17.27
2023-01-13T08:23:35.780Z,18.00
2023-01-13T08:26:04.664Z,15.10
2023-01-13T08:28:34.356Z,16.80
2023-01-13T08:31:02.953Z,16.13
2023-01-13T08:33:31.151Z,16.70
2023-01-13T08:35:59.620Z,15.13
2023-01-13T08:38:27.569Z,17.33
2023-01-13T08:40:55.763Z,16.37
2023-01-13T08:43:24.160Z,17.80
2023-01-13T08:46:01.763Z,17.23
2023-01-13T08:48:31.635Z,19.87
2023-01-13T08:51:04.849Z,14.43
2023-01-13T08:53:32.790Z,14.93
2023-01-13T08:56:00.892Z,14.73
2023-01-13T08:58:28.784Z,14.43
2023-01-13T09:00:56.847Z,19.97
2023-01-13T09:03:26.376Z,19.73
2023-01-13T09:05:54.410Z,12.77
2023-01-13T09:08:23.304Z,14.43
2023-01-13T09:10:54.393Z,22.03
2023-01-13T09:13:22.128Z,24.77
2023-01-13T09:15:50.868Z,20.37
2023-01-13T09:18:18.837Z,17.10
2023-01-13T09:20:48.046Z,20.70
2023-01-13T09:23:15.941Z,16.97
2023-01-13T09:25:43.824Z,15.47
2023-01-13T09:28:11.705Z,18.23
2023-01-13T09:30:39.553Z,17.53
2023-01-13T09:33:25.186Z,21.20
2023-01-13T09:35:59.001Z,13.70
2023-01-13T09:38:26.894Z,20.67
2023-01-13T09:40:55.676Z,17.13
2023-01-13T09:43:47.849Z,20.13
2023-01-13T09:46:32.929Z,19.73
2023-01-13T10:03:04.667Z,13.43
2023-01-13T10:05:37.422Z,17.83
2023-01-13T10:08:12.147Z,18.33
2023-01-13T10:10:43.802Z,12.40
2023-01-13T10:13:16.571Z,13.90
2023-01-13T10:15:53.609Z,16.10
2023-01-13T10:18:29.026Z,13.47
2023-01-13T10:21:06.015Z,16.53
2023-01-13T10:23:52.230Z,16.27
2023-01-13T10:26:37.380Z,16.43
2023-01-13T10:29:17.746Z,16.70
2023-01-13T10:31:45.639Z,20.60
2023-01-13T10:34:16.744Z,15.33
2023-01-13T10:36:59.972Z,16.67
2023-01-13T10:39:28.226Z,15.57
2023-01-13T10:42:03.988Z,18.73
2023-01-13T10:44:31.879Z,16.33
2023-01-13T10:47:00.694Z,16.70
2023-01-13T10:49:33.643Z,20.93
2023-01-13T10:52:02.591Z,18.30
2023-01-13T10:54:31.207Z,15.23
2023-01-13T10:57:16.495Z,12.43
2023-01-13T10:59:44.917Z,14.60
2023-01-13T11:02:29.230Z,21.17
2023-01-13T11:05:17.678Z,13.67
2023-01-13T11:07:52.444Z,10.50
2023-01-13T11:10:27.313Z,23.47
2023-01-13T11:13:00.461Z,12.90
2023-01-13T11:15:40.443Z,15.50
2023-01-13T11:18:15.911Z,16.33
2023-01-13T11:20:47.804Z,16.03
2023-01-13T11:23:22.852Z,14.93
2023-01-13T11:25:55.933Z,10.03
2023-01-13T11:28:42.157Z,9.87
2023-01-13T11:31:16.044Z,14.40
2023-01-13T11:33:49.639Z,14.13
2023-01-13T11:36:23.031Z,20.13
2023-01-13T11:38:53.879Z,14.97
2023-01-13T11:41:41.955Z,8.83
2023-01-13T11:44:19.002Z,11.40
2023-01-13T11:46:50.743Z,13.70
2023-01-13T11:49:26.126Z,13.80
2023-01-13T11:52:01.656Z,9.13
2023-01-13T11:55:00.322Z,9.13
2023-01-13T11:57:53.473Z,15.00
2023-01-13T12:01:03.536Z,13.73
2023-01-13T12:03:37.014Z,12.57
2023-01-13T12:06:24.153Z,11.63
2023-01-13T12:09:19.394Z,13.27
2023-01-13T12:12:14.043Z,15.80
2023-01-13T12:14:55.708Z,15.73
2023-01-13T12:17:31.297Z,17.40
2023-01-13T12:20:01.426Z,11.30
2023-01-13T12:22:34.251Z,16.00
2023-01-13T12:25:14.033Z,11.33
2023-01-13T12:27:47.382Z,16.13
2023-01-13T12:30:26.679Z,12.33
2023-01-13T12:32:56.649Z,10.37
2023-01-13T12:35:38.415Z,12.43
2023-01-13T12:38:13.024Z,12.30
2023-01-13T12:40:53.197Z,12.20
2023-01-13T12:43:41.079Z,11.73
2023-01-13T12:46:44.780Z,11.17
2023-01-13T12:49:22.170Z,16.53
2023-01-13T12:52:15.318Z,12.57
2023-01-13T12:55:16.881Z,11.13
2023-01-13T12:58:27.171Z,12.13
2023-01-13T13:01:02.146Z,13.17
2023-01-13T13:03:33.647Z,9.90
2023-01-13T13:06:13.495Z,10.50
2023-01-13T13:08:51.954Z,12.77
2023-01-13T13:12:02.761Z,12.70
2023-01-13T13:15:22.448Z,15.90
2023-01-13T13:18:21.391Z,10.07
2023-01-13T13:21:05.158Z,9.17
2023-01-13T13:23:55.225Z,11.00
2023-01-13T13:26:32.625Z,7.47
2023-01-13T13:29:34.896Z,9.23
2023-01-13T13:32:33.309Z,9.37
2023-01-13T13:35:17.612Z,13.27
2023-01-13T13:38:17.046Z,9.50
2023-01-13T13:41:05.564Z,10.23
2023-01-13T13:43:57.999Z,10.50
2023-01-13T13:46:46.846Z,8.87
2023-01-13T13:49:18.085Z,12.23
2023-01-13T13:51:53.020Z,12.70
2023-01-13T13:54:23.633Z,12.60
2023-01-13T13:56:52.937Z,8.83
2023-01-13T13:59:24.816Z,9.00
2023-01-13T14:02:01.192Z,11.97
2023-01-13T14:04:33.604Z,9.80
2023-01-13T14:07:04.450Z,12.47
2023-01-13T14:09:41.956Z,6.47
2023-01-13T14:12:19.064Z,6.13
2023-01-13T14:14:51.095Z,10.67
2023-01-13T14:17:23.385Z,9.20
2023-01-13T14:20:00.973Z,10.73
2023-01-13T14:22:29.200Z,14.37
2023-01-13T14:24:58.016Z,8.97
2023-01-13T14:27:28.579Z,9.43
2023-01-13T14:29:58.357Z,10.83
2023-01-13T14:32:32.192Z,8.93
2023-01-13T14:35:01.599Z,12.27
2023-01-13T14:37:34.895Z,11.83
2023-01-13T14:40:03.014Z,10.03
2023-01-13T14:42:35.214Z,9.87
2023-01-13T14:45:03.489Z,15.37
2023-01-13T14:47:33.864Z,11.43
2023-01-13T14:50:07.513Z,8.77
2023-01-13T14:52:37.531Z,7.50
2023-01-13T14:55:23.610Z,9.63
2023-01-13T14:57:54.243Z,11.13
2023-01-13T15:00:26.219Z,8.23
2023-01-13T15:03:08.585Z,14.37
2023-01-13T15:05:47.980Z,11.23
2023-01-13T15:08:46.019Z,10.07
2023-01-13T15:11:25.079Z,13.23
2023-01-13T15:13:59.074Z,13.23
2023-01-13T15:16:29.467Z,11.03
2023-01-13T15:18:58.794Z,8.23
2023-01-13T15:21:27.947Z,6.80
2023-01-13T15:23:56.111Z,8.93
2023-01-13T15:26:26.546Z,9.00
2023-01-13T15:28:59.106Z,8.73
2023-01-13T15:31:28.054Z,9.87
2023-01-13T15:33:56.142Z,11.37
2023-01-13T15:36:28.647Z,11.20
2023-01-13T15:38:57.121Z,13.30
2023-01-13T15:41:39.450Z,8.70
2023-01-13T15:44:24.870Z,12.67
2023-01-13T15:46:53.420Z,12.67
2023-01-13T15:49:26.256Z,12.07
2023-01-13T15:51:55.581Z,9.30
2023-01-13T15:54:24.667Z,14.87
2023-01-13T15:56:53.847Z,11.47
2023-01-13T15:59:26.051Z,11.37
2023-01-13T16:01:53.982Z,13.70
2023-01-13T16:04:22.294Z,11.43
2023-01-13T16:06:51.780Z,8.93
2023-01-13T16:09:24.157Z,7.63
2023-01-13T16:11:52.353Z,11.33
2023-01-13T16:14:22.066Z,10.40
2023-01-13T16:16:50.725Z,11.27
2023-01-13T16:19:18.799Z,15.83
2023-01-13T16:21:46.840Z,8.50
2023-01-13T16:24:14.699Z,7.50
2023-01-13T16:26:43.972Z,12.37
2023-01-13T16:29:12.875Z,11.70
2023-01-13T16:31:40.864Z,11.17
2023-01-13T16:34:08.865Z,10.33
2023-01-13T16:36:37.625Z,10.00
2023-01-13T16:39:06.463Z,9.23
2023-01-13T16:41:34.829Z,10.87
2023-01-13T16:44:06.185Z,11.23
2023-01-13T16:46:35.170Z,11.83
2023-01-13T16:49:05.187Z,10.03
2023-01-13T16:51:34.248Z,11.20
2023-01-13T16:54:02.217Z,11.87
2023-01-13T16:56:31.934Z,6.93
2023-01-13T16:59:03.081Z,10.50
2023-01-13T17:01:33.706Z,7.23
2023-01-13T17:04:02.718Z,14.70
2023-01-13T17:06:35.507Z,10.77
2023-01-13T17:09:05.004Z,11.60
2023-01-13T17:11:33.325Z,11.90
2023-01-13T17:14:18.440Z,15.17
2023-01-13T17:16:50.213Z,7.50
2023-01-13T17:19:18.996Z,6.07
2023-01-13T17:21:52.379Z,5.13
2023-01-13T17:24:21.066Z,5.10
2023-01-13T17:26:53.364Z,2.87
2023-01-13T17:29:22.998Z,2.60
2023-01-13T17:31:53.575Z,5.27
2023-01-13T17:34:23.699Z,4.20
2023-01-13T17:36:53.797Z,3.20
2023-01-13T17:39:24.661Z,1.30
2023-01-13T17:41:55.863Z,2.47
2023-01-13T17:44:23.958Z,2.00
2023-01-13T17:46:54.442Z,1.93
2023-01-13T17:49:22.916Z,1.43
2023-01-13T17:51:51.471Z,1.00
2023-01-13T17:54:20.089Z,1.23
2023-01-13T17:56:52.151Z,2.20
2023-01-13T17:59:22.429Z,4.10
2023-01-13T18:01:51.152Z,1.43
2023-01-13T18:04:22.577Z,3.90
2023-01-13T18:06:51.626Z,2.70
2023-01-13T18:09:19.465Z,3.07
2023-01-13T18:11:48.131Z,8.40
2023-01-13T18:14:16.628Z,6.37
2023-01-13T18:16:45.120Z,5.40
2023-01-13T18:19:31.377Z,5.30
2023-01-13T18:22:18.199Z,10.90
2023-01-13T18:25:03.588Z,5.53
2023-01-13T18:27:33.691Z,5.93
2023-01-13T18:30:02.660Z,6.37
2023-01-13T18:32:33.189Z,9.13
2023-01-13T18:35:05.977Z,6.73
2023-01-13T18:37:38.475Z,9.53
2023-01-13T18:40:09.259Z,8.53
2023-01-13T18:42:51.832Z,8.10
2023-01-13T18:45:20.914Z,8.23
2023-01-13T18:47:50.284Z,6.03
2023-01-13T18:50:18.869Z,6.57
2023-01-13T18:52:51.674Z,7.87
2023-01-13T18:55:21.153Z,6.10
2023-01-13T18:57:50.739Z,10.87
2023-01-13T19:00:22.637Z,6.33
2023-01-13T19:05:35.374Z,6.23
2023-01-13T19:08:04.981Z,5.57
2023-01-13T19:10:33.023Z,6.93
2023-01-13T19:13:02.178Z,7.07
2023-01-13T19:15:30.114Z,5.13
2023-01-13T19:17:58.001Z,5.87
2023-01-13T19:20:25.916Z,9.53
2023-01-13T19:22:54.474Z,4.53
2023-01-13T19:25:24.104Z,7.67
2023-01-13T19:27:52.316Z,9.03
2023-01-13T19:30:20.594Z,9.63
2023-01-13T19:32:51.465Z,2.47
2023-01-13T19:35:20.673Z,7.87
2023-01-13T19:37:51.731Z,7.27
2023-01-13T19:40:20.287Z,5.13
2023-01-13T19:43:25.421Z,7.33
2023-01-13T19:45:53.302Z,7.00
2023-01-13T19:48:21.788Z,10.10
2023-01-13T19:50:50.173Z,8.87
2023-01-13T19:53:18.752Z,5.10
2023-01-13T19:55:48.321Z,8.13
2023-01-13T19:58:20.755Z,5.33
2023-01-13T20:00:52.745Z,4.00
2023-01-13T20:03:24.177Z,5.07
2023-01-13T20:05:53.557Z,10.83
2023-01-13T20:08:25.764Z,6.10
2023-01-13T20:11:13.915Z,6.37
2023-01-13T20:13:43.068Z,6.60
2023-01-13T20:16:11.233Z,4.90
2023-01-13T20:18:39.155Z,4.37
2023-01-13T20:21:08.459Z,5.50
2023-01-13T20:23:36.926Z,4.60
2023-01-13T20:26:08.401Z,4.03
2023-01-13T20:28:38.744Z,5.97
2023-01-13T20:31:09.638Z,4.27
2023-01-13T20:33:38.502Z,5.27
2023-01-13T20:36:07.267Z,6.10
2023-01-13T20:38:38.178Z,2.23
2023-01-13T20:41:28.710Z,3.60
2023-01-13T20:43:55.806Z,6.10
2023-01-13T20:46:25.237Z,6.63
2023-01-13T20:48:53.166Z,4.13
2023-01-13T20:51:21.547Z,5.80
2023-01-13T20:53:50.063Z,3.17
2023-01-13T20:56:17.902Z,7.60
2023-01-13T20:58:45.737Z,5.07
2023-01-13T21:01:13.860Z,9.97
2023-01-13T21:03:43.243Z,7.23
2023-01-13T21:06:11.364Z,9.03
2023-01-13T21:08:39.298Z,7.43
2023-01-13T21:11:10.453Z,4.60
2023-01-13T21:14:04.297Z,8.50
2023-01-13T21:16:33.163Z,7.47
2023-01-13T21:19:07.377Z,8.23
2023-01-13T21:21:35.336Z,9.30
2023-01-13T21:24:04.443Z,8.93
2023-01-13T21:26:33.005Z,10.00
2023-01-13T21:29:02.322Z,11.97
2023-01-13T21:31:30.270Z,12.50
2023-01-13T21:33:59.332Z,10.73
2023-01-13T21:36:29.207Z,8.87
2023-01-13T21:38:59.453Z,6.87
2023-01-13T21:41:45.459Z,8.27
2023-01-13T21:44:33.244Z,12.70
2023-01-13T21:47:18.676Z,9.50
2023-01-13T21:49:46.724Z,9.90
2023-01-13T21:52:16.599Z,11.30
2023-01-13T21:54:58.387Z,10.80
2023-01-13T21:57:27.426Z,8.20
2023-01-13T21:59:55.564Z,8.70
2023-01-13T22:02:31.826Z,9.17
2023-01-13T22:05:00.865Z,9.70
2023-01-13T22:07:32.423Z,9.13
2023-01-13T22:10:00.428Z,12.20
2023-01-13T22:12:29.541Z,9.43
2023-01-13T22:14:57.830Z,10.60
2023-01-13T22:17:27.120Z,7.93
2023-01-13T22:19:57.112Z,10.83
2023-01-13T22:22:26.323Z,7.33
2023-01-13T22:24:55.828Z,11.90
2023-01-13T22:27:25.987Z,11.10
2023-01-13T22:29:54.401Z,8.83
2023-01-13T22:32:22.938Z,9.23
2023-01-13T22:34:50.786Z,8.73
2023-01-13T22:37:18.631Z,9.83
2023-01-13T22:39:46.621Z,12.07
2023-01-13T22:42:15.879Z,16.00
2023-01-13T22:44:44.416Z,6.10
2023-01-13T22:47:12.274Z,8.67
2023-01-13T22:49:42.012Z,11.53
2023-01-13T22:52:09.906Z,8.67
2023-01-13T22:54:37.735Z,11.27
2023-01-13T22:57:05.665Z,14.43
2023-01-13T22:59:34.794Z,10.97
2023-01-13T23:02:02.668Z,12.93
2023-01-13T23:04:30.585Z,9.10
2023-01-13T23:06:59.953Z,12.83
2023-01-13T23:09:29.732Z,12.00
2023-01-13T23:11:58.850Z,10.67
2023-01-13T23:14:27.036Z,8.67
2023-01-13T23:16:56.268Z,11.13
2023-01-13T23:19:24.115Z,13.30
2023-01-13T23:21:54.847Z,17.17
2023-01-13T23:24:25.828Z,8.63
2023-01-13T23:26:53.845Z,8.60
2023-01-13T23:29:21.777Z,13.17
2023-01-13T23:31:49.685Z,8.57
2023-01-13T23:34:18.916Z,9.00
2023-01-13T23:36:46.920Z,11.70
2023-01-13T23:39:14.737Z,11.67
2023-01-13T23:41:42.645Z,10.43
2023-01-13T23:44:10.975Z,8.87
2023-01-13T23:46:38.887Z,12.40
2023-01-13T23:49:06.802Z,7.80
2023-01-13T23:51:36.071Z,19.33
2023-01-13T23:54:03.964Z,9.30
2023-01-13T23:56:32.874Z,7.60
2023-01-13T23:59:00.928Z,9.10
